createdAt,value
2018-07-03T00:00:19.219Z,84.72
2018-07-03T00:01:19.214Z,85.1
2018-07-03T00:02:19.200Z,85
2018-07-03T00:03:19.197Z,85
2018-07-03T00:04:19.188Z,84.72
2018-07-03T00:05:19.183Z,85
2018-07-03T00:06:19.176Z,84.86
2018-07-03T00:07:19.171Z,84.81
2018-07-03T00:08:19.166Z,85
2018-07-03T00:09:19.156Z,85.1
2018-07-03T00:10:19.149Z,84.77
2018-07-03T00:11:19.145Z,84.62
2018-07-03T00:12:19.141Z,84.77
2018-07-03T00:13:19.131Z,84.96
2018-07-03T00:14:19.126Z,85.15
2018-07-03T00:15:19.119Z,85.63
2018-07-03T00:16:19.113Z,85.82
2018-07-03T00:17:19.108Z,85.72
2018-07-03T00:18:19.101Z,85.63
2018-07-03T00:19:19.093Z,85.63
2018-07-03T00:20:19.091Z,85.72
2018-07-03T00:21:19.079Z,85.44
2018-07-03T00:22:19.074Z,85.34
2018-07-03T00:23:19.067Z,85.53
2018-07-03T00:24:19.063Z,85.91
2018-07-03T00:25:19.062Z,85.82
2018-07-03T00:26:19.047Z,85.53
2018-07-03T00:27:19.040Z,85.72
2018-07-03T00:28:18.784Z,85.34
2018-07-03T00:29:19.034Z,85.53
2018-07-03T00:30:19.022Z,85.72
2018-07-03T00:31:19.015Z,85.44
2018-07-03T00:32:19.008Z,85.63
2018-07-03T00:33:19.001Z,86.01
2018-07-03T00:34:18.743Z,86.01
2018-07-03T00:35:18.988Z,85.91
2018-07-03T00:36:18.981Z,85.91
2018-07-03T00:37:18.976Z,86.68
2018-07-03T00:38:18.979Z,86.3
2018-07-03T00:39:18.961Z,86.2
2018-07-03T00:40:18.955Z,86.58
2018-07-03T00:41:18.699Z,86.58
2018-07-03T00:42:18.697Z,86.39
2018-07-03T00:43:18.934Z,86.3
2018-07-03T00:44:18.929Z,86.35
2018-07-03T00:45:18.924Z,86.3
2018-07-03T00:46:18.913Z,86.92
2018-07-03T00:47:18.911Z,86.92
2018-07-03T00:48:18.903Z,86.82
2018-07-03T00:49:18.895Z,87.15
2018-07-03T00:50:18.889Z,87.02
2018-07-03T00:51:18.880Z,86.92
2018-07-03T00:52:18.876Z,87.02
2018-07-03T00:53:18.877Z,86.92
2018-07-03T00:54:18.883Z,86.92
2018-07-03T00:55:18.855Z,86.73
2018-07-03T00:56:18.860Z,87.02
2018-07-03T00:57:18.841Z,87.21
2018-07-03T00:58:18.846Z,87.3
2018-07-03T00:59:18.576Z,87.02
2018-07-03T01:00:18.821Z,87.59
2018-07-03T01:01:18.818Z,87.21
2018-07-03T01:02:18.842Z,87.78
2018-07-03T01:03:18.800Z,87.49
2018-07-03T01:04:19.243Z,87.4
2018-07-03T01:05:18.786Z,87.97
2018-07-03T01:06:18.779Z,88.26
2018-07-03T01:07:18.774Z,87.87
2018-07-03T01:08:18.773Z,88.07
2018-07-03T01:09:18.765Z,88.07
2018-07-03T01:10:18.753Z,87.59
2018-07-03T01:11:18.745Z,87.59
2018-07-03T01:12:18.742Z,88.07
2018-07-03T01:13:18.739Z,87.87
2018-07-03T01:14:18.726Z,87.87
2018-07-03T01:15:18.719Z,88.16
2018-07-03T01:16:18.711Z,87.68
2018-07-03T01:17:18.706Z,87.49
2018-07-03T01:18:18.697Z,87.68
2018-07-03T01:19:18.693Z,87.97
2018-07-03T01:20:18.432Z,87.97
2018-07-03T01:21:18.681Z,87.87
2018-07-03T01:22:18.670Z,87.3
2018-07-03T01:23:18.663Z,87.11
2018-07-03T01:24:18.659Z,87.59
2018-07-03T01:25:18.648Z,87.68
2018-07-03T01:26:18.391Z,87.3
2018-07-03T01:27:18.635Z,87.11
2018-07-03T01:28:18.630Z,87.15
2018-07-03T01:29:18.624Z,87.4
2018-07-03T01:30:18.654Z,87.4
2018-07-03T01:31:18.360Z,87.11
2018-07-03T01:32:18.603Z,87.21
2018-07-03T01:33:18.343Z,87.11
2018-07-03T01:34:18.590Z,87.21
2018-07-03T01:35:18.330Z,87.21
2018-07-03T01:36:18.677Z,87.4
2018-07-03T01:37:18.573Z,87.59
2018-07-03T01:38:18.561Z,87.4
2018-07-03T01:39:18.568Z,87.3
2018-07-03T01:40:18.548Z,87.21
2018-07-03T01:41:18.540Z,87.87
2018-07-03T01:42:18.287Z,88.07
2018-07-03T01:43:18.526Z,87.59
2018-07-03T01:44:18.519Z,88.07
2018-07-03T01:45:18.513Z,88.07
2018-07-03T01:46:18.256Z,87.78
2018-07-03T01:47:18.500Z,87.87
2018-07-03T01:48:18.240Z,87.11
2018-07-03T01:49:18.486Z,87.11
2018-07-03T01:50:18.483Z,87.68
2018-07-03T01:51:18.471Z,87.11
2018-07-03T01:52:18.465Z,87.3
2018-07-03T01:53:18.456Z,87.3
2018-07-03T02:00:18.405Z,87.3
2018-07-03T02:01:18.398Z,87.3
2018-07-03T02:02:18.392Z,87.3
2018-07-03T02:03:18.382Z,87.21
2018-07-03T02:04:18.375Z,87.25
2018-07-03T02:05:18.367Z,87.21
2018-07-03T02:06:18.381Z,87.21
2018-07-03T02:07:18.353Z,87.21
2018-07-03T02:08:18.349Z,87.11
2018-07-03T02:09:18.337Z,87.21
2018-07-03T02:10:18.334Z,87.3
2018-07-03T02:11:18.336Z,87.21
2018-07-03T02:12:18.316Z,87.11
2018-07-03T02:13:18.309Z,87.3
2018-07-03T02:14:18.300Z,87.4
2018-07-03T02:15:18.297Z,87.21
2018-07-03T02:16:18.287Z,87.3
2018-07-03T02:17:18.278Z,87.21
2018-07-03T02:18:18.277Z,87.21
2018-07-03T02:19:18.265Z,87.11
2018-07-03T02:20:18.260Z,87.21
2018-07-03T02:21:18.250Z,87.21
2018-07-03T02:22:18.252Z,87.02
2018-07-03T02:23:18.241Z,87.21
2018-07-03T02:24:18.230Z,87.21
2018-07-03T02:25:18.224Z,87.11
2018-07-03T02:26:18.216Z,87.4
2018-07-03T02:27:17.958Z,87.21
2018-07-03T02:28:18.201Z,87.3
2018-07-03T02:29:18.195Z,87.59
2018-07-03T02:30:18.190Z,87.4
2018-07-03T02:31:18.187Z,87.59
2018-07-03T02:32:18.174Z,87.49
2018-07-03T02:33:18.170Z,87.59
2018-07-03T02:34:17.909Z,87.49
2018-07-03T02:35:18.158Z,87.59
2018-07-03T02:36:18.152Z,87.4
2018-07-03T02:37:17.888Z,87.3
2018-07-03T02:38:18.143Z,87.11
2018-07-03T02:39:18.324Z,87.21
2018-07-03T02:40:18.120Z,87.3
2018-07-03T02:41:17.861Z,87.49
2018-07-03T02:42:18.106Z,87.49
2018-07-03T02:43:18.100Z,87.49
2018-07-03T02:44:17.840Z,87.59
2018-07-03T02:45:18.088Z,87.59
2018-07-03T02:46:18.076Z,87.49
2018-07-03T02:47:18.070Z,87.49
2018-07-03T02:48:18.064Z,87.21
2018-07-03T02:49:18.056Z,87.4
2018-07-03T02:50:18.065Z,87.4
2018-07-03T02:51:18.042Z,87.4
2018-07-03T02:52:18.045Z,87.21
2018-07-03T02:53:18.031Z,87.3
2018-07-03T02:54:18.021Z,87.11
2018-07-03T02:55:17.762Z,87.21
2018-07-03T02:56:18.009Z,87.87
2018-07-03T02:57:17.748Z,87.68
2018-07-03T02:58:17.994Z,87.11
2018-07-03T02:59:17.986Z,87.3
2018-07-03T03:00:17.981Z,87.4
2018-07-03T03:01:17.976Z,87.87
2018-07-03T03:02:17.966Z,87.87
2018-07-03T03:03:17.959Z,87.87
2018-07-03T03:04:17.954Z,87.78
2018-07-03T03:05:17.946Z,87.68
2018-07-03T03:06:17.946Z,87.87
2018-07-03T03:07:17.936Z,87.87
2018-07-03T03:08:18.111Z,87.4
2018-07-03T03:09:17.919Z,87.87
2018-07-03T03:10:17.911Z,87.3
2018-07-03T03:11:17.906Z,87.4
2018-07-03T03:12:17.902Z,87.59
2018-07-03T03:13:17.894Z,87.59
2018-07-03T03:14:17.885Z,87.78
2018-07-03T03:15:17.625Z,87.59
2018-07-03T03:16:17.874Z,87.11
2018-07-03T03:17:17.870Z,87.25
2018-07-03T03:18:17.857Z,87.35
2018-07-03T03:19:17.604Z,87.35
2018-07-03T03:20:17.847Z,87.35
2018-07-03T03:21:17.590Z,87.25
2018-07-03T03:22:17.831Z,87.44
2018-07-03T03:23:18.072Z,87.25
2018-07-03T03:24:17.818Z,87.25
2018-07-03T03:25:17.810Z,87.25
2018-07-03T03:26:17.801Z,87.25
2018-07-03T03:27:17.795Z,87.35
2018-07-03T03:28:17.798Z,86.87
2018-07-03T03:29:17.782Z,86.49
2018-07-03T03:30:17.777Z,86.53
2018-07-03T03:31:17.770Z,86.15
2018-07-03T03:32:17.762Z,85.71
2018-07-03T03:33:17.756Z,85.05
2018-07-03T03:34:17.752Z,84.8
2018-07-03T03:35:17.492Z,83.65
2018-07-03T03:36:17.750Z,83.65
2018-07-03T03:37:17.731Z,82.17
2018-07-03T03:38:17.727Z,81.88
2018-07-03T03:39:17.722Z,81.15
2018-07-03T03:40:17.717Z,80.14
2018-07-03T03:41:17.710Z,79.85
2018-07-03T03:42:17.455Z,78.93
2018-07-03T03:43:17.452Z,77.44
2018-07-03T03:44:17.698Z,76.86
2018-07-03T03:45:17.442Z,75.75
2018-07-03T03:46:17.438Z,74.41
2018-07-03T03:47:17.435Z,73.39
2018-07-03T03:48:17.682Z,72.28
2018-07-03T03:49:17.678Z,70.84
2018-07-03T03:50:17.685Z,69.24
2018-07-03T03:51:17.676Z,68.02
2018-07-03T03:52:17.671Z,66.42
2018-07-03T03:53:17.416Z,65.46
2018-07-03T03:54:17.666Z,63.28
2018-07-03T03:55:17.662Z,63.09
2018-07-03T03:56:17.664Z,61.19
2018-07-03T03:57:17.669Z,60.46
2018-07-03T03:58:17.663Z,58.17
2018-07-03T03:59:17.659Z,57.02
2018-07-03T04:00:17.656Z,56.66
2018-07-03T04:01:17.657Z,56.21
2018-07-03T04:02:17.846Z,54.66
2018-07-03T04:03:17.653Z,53.73
2018-07-03T04:04:17.651Z,52.59
2018-07-03T04:05:17.652Z,52.21
2018-07-03T04:06:17.653Z,51.17
2018-07-03T04:07:17.655Z,50.52
2018-07-03T04:08:17.652Z,49.65
2018-07-03T04:09:17.655Z,48.52
2018-07-03T04:10:17.654Z,47.77
2018-07-03T04:11:17.668Z,47.11
2018-07-03T04:12:17.658Z,46.34
2018-07-03T04:13:17.408Z,45.68
2018-07-03T04:14:17.675Z,44.93
2018-07-03T04:15:17.664Z,44.26
2018-07-03T04:16:17.668Z,43.5
2018-07-03T04:17:17.419Z,42.55
2018-07-03T04:18:17.672Z,41.68
2018-07-03T04:19:17.675Z,41.31
2018-07-03T04:20:17.680Z,40.85
2018-07-03T04:21:17.684Z,40.56
2018-07-03T04:22:17.685Z,40
2018-07-03T04:23:17.691Z,39.12
2018-07-03T04:24:17.698Z,38.65
2018-07-03T04:25:17.702Z,38.17
2018-07-03T04:26:17.705Z,37.8
2018-07-03T04:27:17.710Z,37.22
2018-07-03T04:28:17.717Z,37.24
2018-07-03T04:29:17.721Z,37.35
2018-07-03T04:30:17.728Z,36.96
2018-07-03T04:31:17.739Z,36.3
2018-07-03T04:32:17.749Z,35.42
2018-07-03T04:33:17.757Z,35.15
2018-07-03T04:34:17.758Z,34.95
2018-07-03T04:35:17.771Z,34.19
2018-07-03T04:36:17.772Z,33.53
2018-07-03T04:37:17.777Z,33.23
2018-07-03T04:38:17.787Z,32.96
2018-07-03T04:39:17.540Z,32.37
2018-07-03T04:40:17.802Z,31.41
2018-07-03T04:41:17.811Z,31.41
2018-07-03T04:42:17.817Z,31.13
2018-07-03T04:43:17.572Z,30.74
2018-07-03T04:44:17.832Z,30.27
2018-07-03T04:45:17.587Z,30.18
2018-07-03T04:46:17.850Z,30.08
2018-07-03T04:47:17.603Z,29.41
2018-07-03T04:48:17.867Z,29.32
2018-07-03T04:49:17.879Z,28.83
2018-07-03T04:50:17.881Z,28.75
2018-07-03T04:51:17.891Z,28.06
2018-07-03T04:52:17.906Z,27.98
2018-07-03T04:53:17.964Z,27.59
2018-07-03T04:54:17.664Z,26.92
2018-07-03T04:55:17.935Z,27.21
2018-07-03T04:56:17.938Z,27.03
2018-07-03T04:57:17.694Z,26.73
2018-07-03T04:58:17.956Z,26.16
2018-07-03T04:59:17.964Z,25.67
2018-07-03T05:00:17.977Z,25.1
2018-07-03T05:01:17.983Z,25.2
2018-07-03T05:02:17.995Z,25.5
2018-07-03T05:03:18.003Z,25.11
2018-07-03T05:04:17.761Z,24.91
2018-07-03T05:05:18.023Z,24.73
2018-07-03T05:06:18.036Z,24.24
2018-07-03T05:07:18.046Z,24.35
2018-07-03T05:08:17.802Z,24.06
2018-07-03T05:09:18.068Z,24.16
2018-07-03T05:10:18.076Z,23.49
2018-07-03T05:11:18.086Z,23.6
2018-07-03T05:12:18.101Z,23.6
2018-07-03T05:13:18.109Z,22.92
2018-07-03T05:14:17.868Z,22.61
2018-07-03T05:15:18.135Z,22.72
2018-07-03T05:16:18.143Z,22.92
2018-07-03T05:17:18.157Z,22.82
2018-07-03T05:18:18.169Z,22.42
2018-07-03T05:19:17.926Z,22.34
2018-07-03T05:20:18.193Z,22.44
2018-07-03T05:21:18.200Z,22.14
2018-07-03T05:22:18.211Z,22.15
2018-07-03T05:23:18.230Z,22.25
2018-07-03T05:24:18.236Z,21.77
2018-07-03T05:25:18.258Z,21.47
2018-07-03T05:26:18.010Z,21.18
2018-07-03T05:27:18.272Z,21.09
2018-07-03T05:28:18.036Z,20.89
2018-07-03T05:29:18.044Z,20.99
2018-07-03T05:30:18.312Z,20.6
2018-07-03T05:31:18.329Z,20.8
2018-07-03T05:32:18.340Z,20.9
2018-07-03T05:33:18.347Z,20.62
2018-07-03T05:34:18.361Z,20.22
2018-07-03T05:35:18.373Z,20.03
2018-07-03T05:36:18.389Z,19.93
2018-07-03T05:37:18.614Z,19.93
2018-07-03T05:38:18.416Z,19.74
2018-07-03T05:39:18.427Z,19.74
2018-07-03T05:40:18.445Z,19.84
2018-07-03T05:41:18.453Z,19.95
2018-07-03T05:42:18.467Z,19.45
2018-07-03T05:43:18.482Z,19.65
2018-07-03T05:44:18.496Z,19.26
2018-07-03T05:45:18.523Z,19.17
2018-07-03T05:46:18.521Z,18.87
2018-07-03T05:47:18.287Z,18.77
2018-07-03T05:48:18.298Z,18.88
2018-07-03T05:49:18.310Z,18.88
2018-07-03T05:50:18.578Z,18.59
2018-07-03T05:51:18.339Z,18.49
2018-07-03T05:52:18.613Z,17.99
2018-07-03T05:53:18.820Z,18.79
2018-07-03T05:54:18.635Z,18.79
2018-07-03T05:55:18.396Z,18.59
2018-07-03T05:56:18.807Z,18.19
2018-07-03T05:57:18.678Z,18.1
2018-07-03T05:58:18.693Z,17.91
2018-07-03T05:59:18.710Z,17.41
2018-07-03T06:00:18.726Z,17.61
2018-07-03T06:01:18.739Z,18.1
2018-07-03T06:03:18.766Z,18.48
2018-07-03T06:04:18.783Z,18.59
2018-07-03T06:05:18.548Z,17.7
2018-07-03T06:06:18.815Z,17.7
2018-07-03T06:07:18.586Z,17.99
2018-07-03T06:08:18.846Z,17.99
2018-07-03T06:09:19.133Z,17.71
2018-07-03T06:10:18.875Z,17.71
2018-07-03T06:11:18.891Z,18.21
2018-07-03T06:12:19.176Z,18.1
2018-07-03T06:13:18.924Z,17.82
2018-07-03T06:14:18.940Z,17.82
2018-07-03T06:15:18.957Z,17.33
2018-07-03T06:16:18.978Z,17.04
2018-07-03T06:17:18.990Z,16.93
2018-07-03T06:18:19.006Z,17.44
2018-07-03T06:19:19.029Z,17.14
2018-07-03T06:20:19.039Z,17.04
2018-07-03T06:21:19.057Z,17.05
2018-07-03T06:22:18.827Z,16.75
2018-07-03T06:23:19.090Z,16.76
2018-07-03T06:24:19.108Z,16.16
2018-07-03T06:25:19.134Z,16.27
2018-07-03T06:26:19.139Z,16.46
2018-07-03T06:27:19.289Z,16.36
2018-07-03T06:28:19.177Z,16.76
2018-07-03T06:29:19.192Z,15.88
2018-07-03T06:30:19.460Z,15.88
2018-07-03T06:31:19.232Z,15.67
2018-07-03T06:32:19.002Z,15.97
2018-07-03T06:33:19.271Z,15.97
2018-07-03T06:34:19.285Z,15.87
2018-07-03T06:35:19.306Z,15.77
2018-07-03T06:36:19.320Z,15.77
2018-07-03T06:37:19.445Z,15.78
2018-07-03T06:38:19.355Z,15.98
2018-07-03T06:39:19.380Z,15.3
2018-07-03T06:40:19.396Z,15.39
2018-07-03T06:41:19.411Z,15
2018-07-03T06:42:19.439Z,15.2
2018-07-03T06:43:19.459Z,14.71
2018-07-03T06:44:19.478Z,14.91
2018-07-03T06:45:19.494Z,14.22
2018-07-03T06:46:19.514Z,13.92
2018-07-03T06:47:19.607Z,13.53
2018-07-03T06:48:19.552Z,13.53
2018-07-03T06:49:19.568Z,13.62
2018-07-03T06:50:19.584Z,13.52
2018-07-03T06:51:19.604Z,13.61
2018-07-03T06:52:19.623Z,13.31
2018-07-03T06:53:19.645Z,13.51
2018-07-03T06:54:19.663Z,14.09
2018-07-03T06:55:19.684Z,14.78
2018-07-03T06:56:19.454Z,15.27
2018-07-03T06:57:19.726Z,14.98
2018-07-03T06:58:19.502Z,14.78
2018-07-03T06:59:19.760Z,14.59
2018-07-03T07:00:19.785Z,13.21
2018-07-03T07:01:19.813Z,13.31
2018-07-03T07:02:19.571Z,13.9
2018-07-03T07:03:19.844Z,13.7
2018-07-03T07:04:19.866Z,13.79
2018-07-03T07:05:19.884Z,13.79
2018-07-03T07:06:19.914Z,13.31
2018-07-03T07:07:19.922Z,13.02
2018-07-03T07:08:19.943Z,13.13
2018-07-03T07:09:20.301Z,12.44
2018-07-03T07:10:19.985Z,12.04
2018-07-03T07:11:20.007Z,11.15
2018-07-03T07:12:20.029Z,10.96
2018-07-03T07:13:20.046Z,11.25
2018-07-03T07:14:20.081Z,11.25
2018-07-03T07:15:20.089Z,11.26
2018-07-03T07:16:20.116Z,11.36
2018-07-03T07:17:20.130Z,11.66
2018-07-03T07:18:20.153Z,11.97
2018-07-03T07:19:20.184Z,11.67
2018-07-03T07:20:20.193Z,11.57
2018-07-03T07:21:20.215Z,11.47
2018-07-03T07:22:20.242Z,11.38
2018-07-03T07:23:20.324Z,10.88
2018-07-03T07:24:20.282Z,11.08
2018-07-03T07:25:20.303Z,10.49
2018-07-03T07:26:20.334Z,10.28
2018-07-03T07:27:20.364Z,10.39
2018-07-03T07:28:20.371Z,10.49
2018-07-03T07:29:20.514Z,10.59
2018-07-03T07:30:20.408Z,10.39
2018-07-03T07:31:20.432Z,10.5
2018-07-03T07:32:20.453Z,10.2
2018-07-03T07:33:20.477Z,9.81
2018-07-03T07:34:20.542Z,9.7
2018-07-03T07:35:20.537Z,8.81
2018-07-03T07:36:20.543Z,9.11
2018-07-03T07:37:20.592Z,9.11
2018-07-03T07:38:20.583Z,8.81
2018-07-03T07:39:20.607Z,8.7
2018-07-03T07:40:20.630Z,9.5
2018-07-03T07:41:20.652Z,9.11
2018-07-03T07:42:20.672Z,8.4
2018-07-03T07:43:20.447Z,8.7
2018-07-03T07:44:20.724Z,8.6
2018-07-03T07:45:20.738Z,8.9
2018-07-03T07:46:20.761Z,8.9
2018-07-03T07:47:20.530Z,8.9
2018-07-03T07:48:20.807Z,8.4
2018-07-03T07:49:20.829Z,8.69
2018-07-03T07:50:20.851Z,8.49
2018-07-03T07:51:20.895Z,8.49
2018-07-03T07:52:20.897Z,8.69
2018-07-03T07:53:20.935Z,8.39
2018-07-03T07:54:20.962Z,7.59
2018-07-03T07:55:20.708Z,7.08
2018-07-03T07:56:21.042Z,7.97
2018-07-03T07:57:21.003Z,8.85
2018-07-03T07:58:21.017Z,9.53
2018-07-03T07:59:21.038Z,9.92
2018-07-03T08:00:21.185Z,10.39
2018-07-03T08:01:21.093Z,10.78
2018-07-03T08:02:21.095Z,11.17
2018-07-03T08:03:21.121Z,10.77
2018-07-03T08:04:21.131Z,11.36
2018-07-03T08:05:21.155Z,10.57
2018-07-03T08:06:21.188Z,10.87
2018-07-03T08:07:21.206Z,10.97
2018-07-03T08:08:21.217Z,11.07
2018-07-03T08:09:21.229Z,11.76
2018-07-03T08:10:21.276Z,11.46
2018-07-03T08:11:21.271Z,11.07
2018-07-03T08:12:21.288Z,11.76
2018-07-03T08:13:21.161Z,11.76
2018-07-03T08:14:21.323Z,12.26
2018-07-03T08:15:21.335Z,11.46
2018-07-03T08:16:21.108Z,11.57
2018-07-03T08:17:21.371Z,11.17
2018-07-03T08:18:21.391Z,10.58
2018-07-03T08:19:21.418Z,11.17
2018-07-03T08:20:21.428Z,11.36
2018-07-03T08:21:21.461Z,11.94
2018-07-03T08:22:21.474Z,12.23
2018-07-03T08:23:21.475Z,12.42
2018-07-03T08:24:21.505Z,12.9
2018-07-03T08:25:21.526Z,12.99
2018-07-03T08:26:21.279Z,13.48
2018-07-03T08:27:21.563Z,14.17
2018-07-03T08:28:21.562Z,13.39
2018-07-03T08:29:21.596Z,13.19
2018-07-03T08:30:21.631Z,12.8
2018-07-03T08:31:21.611Z,13.09
2018-07-03T08:32:21.834Z,13.18
2018-07-03T08:33:21.394Z,12.59
2018-07-03T08:34:21.684Z,12.98
2018-07-03T08:35:21.681Z,12.98
2018-07-03T08:36:21.694Z,12.39
2018-07-03T08:37:21.711Z,12.79
2018-07-03T08:38:21.797Z,12.19
2018-07-03T08:39:21.493Z,12.68
2018-07-03T08:40:21.760Z,12.87
2018-07-03T08:41:21.780Z,13.35
2018-07-03T08:42:21.539Z,14.33
2018-07-03T08:43:21.563Z,13.94
2018-07-03T08:44:21.822Z,14.23
2018-07-03T08:45:21.844Z,14.81
2018-07-03T08:46:21.855Z,14.71
2018-07-03T08:47:21.871Z,14.42
2018-07-03T08:48:22.005Z,14.61
2018-07-03T08:49:21.954Z,15
2018-07-03T08:50:21.926Z,15.1
2018-07-03T08:51:21.683Z,15.1
2018-07-03T08:52:21.698Z,14.71
2018-07-03T08:53:21.968Z,14.32
2018-07-03T08:54:22.013Z,14.32
2018-07-03T08:55:22.009Z,14.42
2018-07-03T08:56:22.024Z,15.2
2018-07-03T08:57:22.029Z,15.2
2018-07-03T08:58:22.140Z,15.5
2018-07-03T08:59:22.060Z,15.2
2018-07-03T09:00:22.066Z,14.61
2018-07-03T09:01:22.105Z,14.41
2018-07-03T09:02:22.097Z,15.28
2018-07-03T09:03:22.109Z,15.66
2018-07-03T09:04:24.825Z,15.75
2018-07-03T09:05:22.143Z,16.61
2018-07-03T09:06:22.158Z,16.71
2018-07-03T09:07:22.172Z,17.09
2018-07-03T09:08:22.182Z,17.66
2018-07-03T09:09:22.242Z,18.23
2018-07-03T09:10:22.200Z,18.9
2018-07-03T09:11:21.974Z,19.59
2018-07-03T09:12:21.978Z,20.07
2018-07-03T09:13:22.233Z,19.68
2018-07-03T09:14:22.242Z,19.68
2018-07-03T09:15:22.251Z,20.06
2018-07-03T09:16:22.309Z,20.25
2018-07-03T09:17:22.268Z,21.03
2018-07-03T09:18:22.286Z,21.02
2018-07-03T09:19:22.297Z,21.4
2018-07-03T09:20:22.306Z,21.88
2018-07-03T09:21:22.318Z,22.07
2018-07-03T09:22:22.316Z,22.16
2018-07-03T09:23:22.343Z,22.44
2018-07-03T09:24:22.327Z,22.92
2018-07-03T09:25:22.334Z,23.41
2018-07-03T09:26:22.337Z,23.89
2018-07-03T09:27:22.347Z,23.59
2018-07-03T09:29:22.360Z,24.26
2018-07-03T09:30:22.449Z,24.06
2018-07-03T09:31:23.848Z,24.63
2018-07-03T09:32:22.378Z,24.63
2018-07-03T09:33:22.430Z,24.62
2018-07-03T09:34:22.390Z,25.01
2018-07-03T09:35:22.384Z,25.1
2018-07-03T09:36:24.947Z,25.1
2018-07-03T09:37:24.880Z,24.91
2018-07-03T09:38:23.673Z,25.01
2018-07-03T09:39:23.673Z,26.17
2018-07-03T09:40:22.401Z,24.52
2018-07-03T09:41:22.405Z,25.1
2018-07-03T09:42:22.454Z,24.9
2018-07-03T09:43:22.410Z,25.19
2018-07-03T09:44:22.431Z,25.38
2018-07-03T09:45:22.427Z,24.8
2018-07-03T09:46:22.432Z,24.61
2018-07-03T09:47:22.426Z,24.99
2018-07-03T09:48:22.452Z,25.38
2018-07-03T09:49:22.426Z,25.96
2018-07-03T09:50:22.431Z,25.58
2018-07-03T09:51:22.430Z,25.67
2018-07-03T09:52:22.438Z,25.67
2018-07-03T09:53:22.441Z,24.99
2018-07-03T09:54:22.443Z,25.87
2018-07-03T09:55:22.187Z,26.35
2018-07-03T09:56:22.190Z,25.87
2018-07-03T09:57:22.449Z,25.87
2018-07-03T09:58:22.448Z,25.48
2018-07-03T09:59:22.452Z,25.38
2018-07-03T10:00:22.697Z,26.45
2018-07-03T10:01:22.464Z,27.22
2018-07-03T10:02:22.455Z,26.45
2018-07-03T10:03:22.457Z,27.32
2018-07-03T10:04:22.210Z,26.45
2018-07-03T10:05:22.474Z,26.45
2018-07-03T10:06:22.462Z,26.35
2018-07-03T10:07:22.489Z,26.26
2018-07-03T10:08:22.472Z,26.45
2018-07-03T10:09:22.467Z,25.77
2018-07-03T10:10:22.473Z,25.67
2018-07-03T10:11:22.473Z,25.67
2018-07-03T10:12:22.475Z,26.26
2018-07-03T10:13:22.477Z,26.06
2018-07-03T10:14:22.228Z,26.26
2018-07-03T10:15:22.502Z,26.16
2018-07-03T10:16:22.513Z,26.26
2018-07-03T10:17:22.490Z,26.26
2018-07-03T10:18:22.237Z,26.35
2018-07-03T10:19:22.238Z,26.54
2018-07-03T10:20:22.492Z,26.45
2018-07-03T10:21:22.494Z,26.64
2018-07-03T10:22:22.502Z,27.32
2018-07-03T10:23:22.512Z,27.32
2018-07-03T10:24:22.522Z,26.64
2018-07-03T10:25:22.256Z,27.61
2018-07-03T10:26:22.269Z,27.42
2018-07-03T10:27:22.511Z,27.81
2018-07-03T10:28:22.508Z,27.13
2018-07-03T10:29:22.517Z,27.71
2018-07-03T10:30:22.515Z,27.91
2018-07-03T10:31:22.657Z,27.43
2018-07-03T10:32:22.540Z,27.14
2018-07-03T10:33:22.544Z,26.46
2018-07-03T10:34:22.525Z,26.56
2018-07-03T10:35:22.527Z,26.85
2018-07-03T10:36:22.526Z,26.85
2018-07-03T10:37:22.532Z,26.17
2018-07-03T10:38:22.569Z,26.27
2018-07-03T10:39:22.541Z,26.37
2018-07-03T10:40:22.304Z,25.68
2018-07-03T10:52:22.548Z,27.33
2018-07-03T10:53:22.548Z,26.75
2018-07-03T10:54:22.554Z,26.85
2018-07-03T10:55:22.548Z,26.75
2018-07-03T10:56:22.553Z,27.82
2018-07-03T10:57:22.297Z,28.11
2018-07-03T10:58:22.301Z,28.4
2018-07-03T10:59:22.562Z,27.62
2018-07-03T11:00:22.557Z,27.82
2018-07-03T11:01:22.556Z,27.24
2018-07-03T11:02:22.572Z,27.24
2018-07-03T11:03:22.303Z,26.75
2018-07-03T11:04:22.568Z,26.75
2018-07-03T11:05:22.559Z,27.72
2018-07-03T11:06:22.574Z,27.72
2018-07-03T11:07:22.566Z,26.85
2018-07-03T11:08:22.564Z,27.92
2018-07-03T11:09:22.580Z,27.92
2018-07-03T11:10:22.577Z,27.72
2018-07-03T11:11:22.317Z,28.59
2018-07-03T11:12:22.573Z,27.53
2018-07-03T11:13:22.578Z,27.83
2018-07-03T11:14:22.584Z,27.45
2018-07-03T11:15:22.582Z,27.45
2018-07-03T11:16:22.595Z,26.76
2018-07-03T11:17:22.587Z,26.57
2018-07-03T11:18:22.586Z,27.62
2018-07-03T11:19:22.585Z,27.92
2018-07-03T11:20:22.591Z,27.14
2018-07-03T11:21:22.591Z,27.53
2018-07-03T11:22:22.593Z,27.62
2018-07-03T11:23:22.596Z,27.33
2018-07-03T11:24:22.612Z,27.92
2018-07-03T11:25:22.599Z,27.71
2018-07-03T11:26:22.597Z,28.5
2018-07-03T11:27:22.349Z,28.59
2018-07-03T11:28:22.603Z,27.72
2018-07-03T11:29:22.605Z,28.11
2018-07-03T11:30:22.616Z,27.43
2018-07-03T11:31:22.355Z,27.62
2018-07-03T11:32:22.611Z,28.11
2018-07-03T11:33:22.622Z,28.4
2018-07-03T11:34:22.620Z,28.59
2018-07-03T11:35:22.633Z,28.3
2018-07-03T11:36:22.631Z,28.32
2018-07-03T11:37:22.633Z,27.82
2018-07-03T11:38:22.628Z,28.51
2018-07-03T11:39:22.626Z,29.38
2018-07-03T11:40:22.624Z,29.1
2018-07-03T11:41:22.629Z,29.19
2018-07-03T11:42:22.628Z,27.83
2018-07-03T11:43:22.640Z,27.45
2018-07-03T11:44:22.634Z,27.73
2018-07-03T11:45:22.641Z,27.45
2018-07-03T11:46:22.652Z,26.57
2018-07-03T11:47:22.642Z,26.28
2018-07-03T11:48:22.642Z,26.57
2018-07-03T11:49:22.661Z,26.38
2018-07-03T11:50:22.394Z,26.48
2018-07-03T11:51:22.397Z,26.38
2018-07-03T11:52:22.651Z,26.57
2018-07-03T11:53:22.655Z,26.76
2018-07-03T11:54:22.658Z,27.45
2018-07-03T11:55:22.654Z,27.83
2018-07-03T11:56:22.672Z,26.48
2018-07-03T11:57:22.660Z,25.31
2018-07-03T11:58:22.673Z,25.7
2018-07-03T11:59:22.664Z,25.31
2018-07-03T12:00:22.415Z,25.12
2018-07-03T12:01:22.769Z,25.12
2018-07-03T12:02:22.694Z,25.12
2018-07-03T12:03:22.677Z,25.12
2018-07-03T12:04:22.675Z,25.7
2018-07-03T12:05:22.685Z,25.7
2018-07-03T12:06:22.682Z,25.6
2018-07-03T12:07:22.686Z,25.79
2018-07-03T12:08:22.685Z,26.38
2018-07-03T12:09:22.440Z,26.76
2018-07-03T12:10:22.687Z,26.76
2018-07-03T12:11:22.780Z,27.07
2018-07-03T12:12:22.706Z,25.42
2018-07-03T12:13:22.696Z,26
2018-07-03T12:14:22.444Z,25.42
2018-07-03T12:15:22.451Z,25.42
2018-07-03T12:16:22.706Z,25.9
2018-07-03T12:17:22.706Z,25.13
2018-07-03T12:18:22.707Z,24.74
2018-07-03T12:19:22.710Z,24.55
2018-07-03T12:20:22.717Z,24.74
2018-07-03T12:21:22.711Z,24.65
2018-07-03T12:22:22.719Z,25.13
2018-07-03T12:23:22.716Z,25.03
2018-07-03T12:24:22.724Z,25.03
2018-07-03T12:42:22.733Z,24.45
2018-07-03T12:43:22.779Z,24.45
2018-07-03T12:44:22.732Z,23.87
2018-07-03T12:45:22.735Z,24.26
2018-07-03T12:46:22.732Z,24.26
2018-07-03T12:47:22.736Z,24.35
2018-07-03T12:48:22.744Z,24.16
2018-07-03T12:49:22.735Z,23.68
2018-07-03T12:50:22.740Z,23.77
2018-07-03T12:51:22.750Z,23.38
2018-07-03T12:52:22.739Z,23.28
2018-07-03T12:53:22.761Z,23.58
2018-07-03T12:54:22.742Z,23.28
2018-07-03T12:55:22.792Z,23.19
2018-07-03T12:56:22.742Z,23.96
2018-07-03T12:57:22.783Z,24.45
2018-07-03T12:58:22.751Z,24.45
2018-07-03T12:59:22.768Z,24.16
2018-07-03T13:00:22.752Z,24.16
2018-07-03T13:01:22.757Z,23.96
2018-07-03T13:02:22.800Z,24.45
2018-07-03T13:03:22.776Z,24.84
2018-07-03T13:04:22.754Z,24.35
2018-07-03T13:05:22.758Z,24.65
2018-07-03T13:06:22.791Z,23.96
2018-07-03T13:07:22.765Z,24.06
2018-07-03T13:08:22.774Z,24.16
2018-07-03T13:09:22.783Z,23.77
2018-07-03T13:10:22.766Z,23.77
2018-07-03T13:11:22.794Z,23.77
2018-07-03T13:12:22.776Z,25.13
2018-07-03T13:13:22.776Z,24.07
2018-07-03T13:14:22.792Z,23.77
2018-07-03T13:15:22.784Z,24.56
2018-07-03T13:16:22.783Z,23.69
2018-07-03T13:17:22.533Z,23.2
2018-07-03T13:18:22.534Z,23.3
2018-07-03T13:19:22.785Z,23.79
2018-07-03T13:20:22.792Z,23.97
2018-07-03T13:21:22.922Z,23.97
2018-07-03T13:22:22.796Z,23.3
2018-07-03T13:23:22.797Z,24.27
2018-07-03T13:24:22.824Z,23.97
2018-07-03T13:25:22.800Z,24.27
2018-07-03T13:26:22.801Z,24.17
2018-07-03T13:27:22.803Z,24.07
2018-07-03T13:28:22.810Z,24.17
2018-07-03T13:29:22.807Z,24.76
2018-07-03T13:30:35.562Z,24.56
2018-07-03T13:31:22.814Z,24.66
2018-07-03T13:32:22.817Z,24.95
2018-07-03T13:33:37.492Z,25.34